Papalote, Texas
Current Conditions -  °F | °C
As of 10:51 PM on Wednesday 26 Nov 2014 (Local Time) from KCRP Reporting Station
Clear Clear  
Wind Chill: 54°   Ceiling: Unl
Heat Index: 54°   Visibility: 10mi
Dew Point: 51°   Wind: 7mph
Humidity: 90%   Direction: 170°S
Pressure: 30.3"   Gusts: NA
Location:  28.0577°N, 97.5365°W
Report Text: KCRP 270451Z 17006KT 10SM CLR 12/11 A3030 RMK AO2 SLP261 T01220106 $
Loading
Personal Weather Stations






























Interactive Weather Map New forecast layout! Learn more

10-Day Weather Forecast

Advertisements
Track Severe Weather on mobile